createdAt,value
2023-04-06T00:00:14.256Z,78.91
2023-04-06T00:01:14.251Z,79.11
2023-04-06T00:02:14.171Z,79.28
2023-04-06T00:03:14.236Z,79.39
2023-04-06T00:04:14.151Z,79.91
2023-04-06T00:05:14.160Z,79.39
2023-04-06T00:06:16.013Z,79.08
2023-04-06T00:07:14.084Z,80.12
2023-04-06T00:08:14.104Z,80.02
2023-04-06T00:09:14.110Z,80.33
2023-04-06T00:10:14.079Z,81.16
2023-04-06T00:11:14.092Z,81.47
2023-04-06T00:12:14.038Z,81.99
2023-04-06T00:13:14.029Z,82.34
2023-04-06T00:14:14.011Z,82.14
2023-04-06T00:15:14.006Z,82.03
2023-04-06T00:16:14.056Z,82.45
2023-04-06T00:17:13.969Z,83.28
2023-04-06T00:18:14.064Z,83.80
2023-04-06T00:19:13.966Z,83.80
2023-04-06T00:20:14.039Z,84.12
2023-04-06T00:21:13.927Z,84.95
2023-04-06T00:22:14.003Z,85.36
2023-04-06T00:23:13.904Z,85.68
2023-04-06T00:24:13.933Z,86.51
2023-04-06T00:25:13.909Z,85.89
2023-04-06T00:26:13.892Z,85.68
2023-04-06T00:27:13.884Z,85.47
2023-04-06T00:28:13.914Z,85.68
2023-04-06T00:29:13.912Z,85.72
2023-04-06T00:30:13.878Z,85.99
2023-04-06T00:31:13.839Z,86.41
2023-04-06T00:32:13.867Z,86.41
2023-04-06T00:33:13.833Z,85.93
2023-04-06T00:34:13.850Z,85.51
2023-04-06T00:35:13.808Z,85.61
2023-04-06T00:36:13.858Z,86.87
2023-04-06T00:37:13.765Z,87.07
2023-04-06T00:38:13.776Z,86.76
2023-04-06T00:39:13.756Z,86.76
2023-04-06T00:40:13.794Z,87.07
2023-04-06T00:41:13.749Z,87.18
2023-04-06T00:42:13.740Z,87.81
2023-04-06T00:43:13.758Z,88.22
2023-04-06T00:44:13.698Z,87.91
2023-04-06T00:45:13.694Z,87.81
2023-04-06T00:46:13.832Z,87.53
2023-04-06T00:47:13.658Z,87.12
2023-04-06T00:48:13.666Z,87.01
2023-04-06T00:49:13.649Z,87.63
2023-04-06T00:50:13.658Z,88.26
2023-04-06T00:51:13.620Z,87.95
2023-04-06T00:52:13.652Z,87.63
2023-04-06T00:53:13.600Z,88.06
2023-04-06T00:54:13.686Z,88.68
2023-04-06T00:55:13.655Z,88.78
2023-04-06T00:56:13.587Z,88.99
2023-04-06T00:57:13.597Z,89.72
2023-04-06T00:58:13.556Z,89.83
2023-04-06T00:59:13.629Z,89.68
2023-04-06T01:00:13.641Z,89.72
2023-04-06T01:01:13.576Z,89.93
2023-04-06T01:02:13.550Z,89.72
2023-04-06T01:03:13.497Z,89.51
2023-04-06T01:04:13.532Z,89.62
2023-04-06T01:05:13.525Z,89.51
2023-04-06T01:06:13.482Z,89.93
2023-04-06T01:07:13.453Z,90.03
2023-04-06T01:08:13.538Z,90.14
2023-04-06T01:09:13.536Z,89.83
2023-04-06T01:10:13.479Z,89.62
2023-04-06T01:11:13.436Z,89.93
2023-04-06T01:12:13.484Z,89.62
2023-04-06T01:13:13.468Z,89.41
2023-04-06T01:14:13.413Z,89.72
2023-04-06T01:15:13.397Z,89.93
2023-04-06T01:16:13.415Z,90.03
2023-04-06T01:17:13.349Z,89.62
2023-04-06T01:18:13.367Z,89.83
2023-04-06T01:19:13.330Z,89.41
2023-04-06T01:20:13.434Z,89.20
2023-04-06T01:21:13.360Z,89.45
2023-04-06T01:22:13.310Z,89.56
2023-04-06T01:23:13.289Z,89.24
2023-04-06T01:24:13.318Z,89.03
2023-04-06T01:25:13.329Z,88.93
2023-04-06T01:26:13.291Z,89.45
2023-04-06T01:27:13.264Z,89.66
2023-04-06T01:28:13.302Z,89.87
2023-04-06T01:29:13.229Z,89.76
2023-04-06T01:30:13.253Z,89.56
2023-04-06T01:31:13.276Z,89.49
2023-04-06T01:32:13.236Z,89.18
2023-04-06T01:33:13.229Z,89.28
2023-04-06T01:34:13.327Z,89.59
2023-04-06T01:35:13.200Z,89.28
2023-04-06T01:36:13.218Z,89.18
2023-04-06T01:37:13.164Z,89.66
2023-04-06T01:38:13.149Z,89.03
2023-04-06T01:39:13.140Z,88.82
2023-04-06T01:40:13.147Z,88.30
2023-04-06T01:41:13.111Z,88.03
2023-04-06T01:42:13.100Z,87.82
2023-04-06T01:43:13.089Z,87.61
2023-04-06T01:44:13.082Z,87.61
2023-04-06T01:45:13.079Z,88.03
2023-04-06T01:46:13.226Z,88.03
2023-04-06T01:47:13.061Z,88.03
2023-04-06T01:48:13.086Z,88.03
2023-04-06T01:49:13.031Z,88.34
2023-04-06T01:50:13.107Z,88.55
2023-04-06T01:51:13.017Z,88.39
2023-04-06T01:52:13.002Z,88.70
2023-04-06T01:53:12.989Z,88.90
2023-04-06T01:54:12.994Z,89.81
2023-04-06T01:55:13.017Z,90.16
2023-04-06T01:56:12.955Z,89.95
2023-04-06T01:57:12.939Z,89.74
2023-04-06T01:58:12.960Z,90.95
2023-04-06T01:59:12.952Z,91.58
2023-04-06T02:00:12.929Z,92.00
2023-04-06T02:01:12.957Z,91.79
2023-04-06T02:02:12.957Z,91.47
2023-04-06T02:03:12.939Z,91.58
2023-04-06T02:04:12.914Z,91.27
2023-04-06T02:05:12.932Z,90.85
2023-04-06T02:06:12.859Z,90.53
2023-04-06T02:07:12.886Z,90.33
2023-04-06T02:08:12.877Z,90.01
2023-04-06T02:09:12.818Z,89.84
2023-04-06T02:10:12.852Z,89.84
2023-04-06T02:11:12.805Z,90.06
2023-04-06T02:12:12.886Z,90.06
2023-04-06T02:13:12.785Z,90.75
2023-04-06T02:14:12.783Z,90.85
2023-04-06T02:15:12.768Z,90.85
2023-04-06T02:16:12.842Z,91.06
2023-04-06T02:17:12.761Z,90.85
2023-04-06T02:18:12.790Z,90.43
2023-04-06T02:19:12.749Z,90.12
2023-04-06T02:20:12.781Z,89.91
2023-04-06T02:21:12.743Z,89.95
2023-04-06T02:22:12.771Z,89.74
2023-04-06T02:23:12.679Z,89.64
2023-04-06T02:24:12.673Z,89.43
2023-04-06T02:25:12.695Z,89.84
2023-04-06T02:26:12.653Z,90.37
2023-04-06T02:27:12.625Z,90.26
2023-04-06T02:28:12.670Z,89.95
2023-04-06T02:29:12.622Z,89.74
2023-04-06T02:30:12.663Z,89.53
2023-04-06T02:31:12.671Z,89.47
2023-04-06T02:32:12.645Z,89.58
2023-04-06T02:33:12.564Z,89.68
2023-04-06T02:34:12.630Z,90.20
2023-04-06T02:35:12.554Z,90.09
2023-04-06T02:36:12.556Z,90.20
2023-04-06T02:37:12.534Z,90.52
2023-04-06T02:38:12.591Z,90.93
2023-04-06T02:39:12.540Z,91.14
2023-04-06T02:40:12.523Z,91.14
2023-04-06T02:41:12.494Z,91.66
2023-04-06T02:42:12.550Z,91.56
2023-04-06T02:43:12.462Z,91.25
2023-04-06T02:44:12.472Z,91.14
2023-04-06T02:45:12.493Z,91.87
2023-04-06T02:46:12.558Z,91.77
2023-04-06T02:47:12.422Z,91.56
2023-04-06T02:48:12.416Z,91.56
2023-04-06T02:49:12.401Z,91.66
2023-04-06T02:50:12.467Z,91.66
2023-04-06T02:51:12.389Z,91.66
2023-04-06T02:52:12.385Z,91.66
2023-04-06T02:53:12.390Z,91.46
2023-04-06T02:54:12.356Z,91.46
2023-04-06T02:55:12.352Z,91.46
2023-04-06T02:56:12.490Z,91.46
2023-04-06T02:57:12.350Z,91.66
2023-04-06T02:58:12.442Z,91.25
2023-04-06T02:59:12.434Z,90.62
2023-04-06T03:00:12.364Z,90.52
2023-04-06T03:01:12.336Z,90.41
2023-04-06T03:02:12.277Z,90.41
2023-04-06T03:03:12.300Z,90.31
2023-04-06T03:04:12.287Z,90.83
2023-04-06T03:05:12.234Z,90.58
2023-04-06T03:06:12.272Z,90.37
2023-04-06T03:07:12.232Z,90.26
2023-04-06T03:08:12.237Z,90.26
2023-04-06T03:09:12.204Z,90.06
2023-04-06T03:10:12.187Z,90.06
2023-04-06T03:11:12.191Z,90.06
2023-04-06T03:12:12.204Z,90.26
2023-04-06T03:13:12.157Z,90.06
2023-04-06T03:14:12.158Z,89.84
2023-04-06T03:15:12.152Z,89.64
2023-04-06T03:16:12.198Z,89.43
2023-04-06T03:17:12.113Z,89.43
2023-04-06T03:18:12.163Z,89.22
2023-04-06T03:19:12.094Z,88.90
2023-04-06T03:20:12.091Z,88.59
2023-04-06T03:21:12.086Z,88.28
2023-04-06T03:22:12.168Z,88.32
2023-04-06T03:23:12.084Z,88.42
2023-04-06T03:24:12.060Z,88.21
2023-04-06T03:25:12.032Z,88.32
2023-04-06T03:26:12.052Z,87.96
2023-04-06T03:27:12.018Z,87.23
2023-04-06T03:28:12.038Z,86.61
2023-04-06T03:29:11.988Z,86.05
2023-04-06T03:30:11.977Z,85.73
2023-04-06T03:31:11.975Z,85.42
2023-04-06T03:32:12.014Z,85.21
2023-04-06T03:33:11.953Z,84.79
2023-04-06T03:34:11.987Z,84.58
2023-04-06T03:35:12.009Z,84.38
2023-04-06T03:36:11.966Z,84.58
2023-04-06T03:37:11.910Z,84.69
2023-04-06T03:38:12.019Z,84.73
2023-04-06T03:39:11.914Z,85.04
2023-04-06T03:40:11.904Z,85.42
2023-04-06T03:41:11.875Z,85.31
2023-04-06T03:42:11.940Z,84.89
2023-04-06T03:43:11.885Z,84.89
2023-04-06T03:44:11.884Z,84.79
2023-04-06T03:45:11.889Z,84.73
2023-04-06T03:46:11.839Z,84.94
2023-04-06T03:47:11.857Z,84.83
2023-04-06T03:48:11.953Z,85.08
2023-04-06T03:49:11.779Z,85.29
2023-04-06T03:50:11.850Z,85.08
2023-04-06T03:51:11.791Z,85.29
2023-04-06T03:52:12.048Z,85.81
2023-04-06T03:53:11.741Z,86.13
2023-04-06T03:54:11.797Z,86.65
2023-04-06T03:55:11.723Z,86.65
2023-04-06T03:56:11.715Z,86.96
2023-04-06T03:57:11.699Z,87.07
2023-04-06T03:58:11.741Z,86.85
2023-04-06T03:59:11.804Z,87.27
2023-04-06T04:00:11.687Z,88.11
2023-04-06T04:01:11.672Z,88.11
2023-04-06T04:02:11.684Z,88.11
2023-04-06T04:03:11.751Z,88.01
2023-04-06T04:04:11.662Z,87.69
2023-04-06T04:05:11.642Z,87.90
2023-04-06T04:06:11.608Z,88.01
2023-04-06T04:07:11.622Z,88.11
2023-04-06T04:08:11.608Z,87.90
2023-04-06T04:09:11.601Z,87.80
2023-04-06T04:10:11.585Z,88.21
2023-04-06T04:11:11.620Z,88.74
2023-04-06T04:12:11.583Z,88.95
2023-04-06T04:13:11.532Z,89.15
2023-04-06T04:14:11.536Z,89.47
2023-04-06T04:15:11.534Z,89.47
2023-04-06T04:16:11.545Z,89.15
2023-04-06T04:17:11.490Z,89.36
2023-04-06T04:18:11.534Z,89.78
2023-04-06T04:19:11.468Z,89.47
2023-04-06T04:20:11.469Z,89.36
2023-04-06T04:21:11.466Z,89.05
2023-04-06T04:22:11.457Z,88.64
2023-04-06T04:23:11.582Z,88.32
2023-04-06T04:24:11.516Z,88.74
2023-04-06T04:25:11.413Z,88.74
2023-04-06T04:26:11.494Z,88.67
2023-04-06T04:27:11.391Z,88.46
2023-04-06T04:28:11.384Z,88.57
2023-04-06T04:29:11.378Z,88.88
2023-04-06T04:30:11.377Z,88.88
2023-04-06T04:31:11.374Z,88.67
2023-04-06T04:32:11.406Z,88.88
2023-04-06T04:33:11.414Z,89.09
2023-04-06T04:34:11.377Z,89.40
2023-04-06T04:35:11.313Z,89.40
2023-04-06T04:36:11.358Z,89.34
2023-04-06T04:37:11.317Z,89.55
2023-04-06T04:38:11.460Z,89.45
2023-04-06T04:39:11.289Z,91.02
2023-04-06T04:40:11.448Z,92.13
2023-04-06T04:41:11.309Z,92.96
2023-04-06T04:42:11.343Z,93.13
2023-04-06T04:43:11.247Z,93.17
2023-04-06T04:44:11.233Z,92.85
2023-04-06T04:45:11.275Z,92.65
2023-04-06T04:46:11.321Z,92.96
2023-04-06T04:47:11.192Z,93.07
2023-04-06T04:48:11.285Z,93.07
2023-04-06T04:49:11.247Z,92.96
2023-04-06T04:50:11.163Z,92.96
2023-04-06T04:51:11.167Z,92.75
2023-04-06T04:52:11.166Z,93.07
2023-04-06T04:53:11.141Z,93.07
2023-04-06T04:54:11.116Z,93.01
2023-04-06T04:55:11.154Z,93.01
2023-04-06T04:56:11.264Z,93.48
2023-04-06T04:57:11.091Z,93.59
2023-04-06T04:58:11.095Z,93.32
2023-04-06T04:59:11.338Z,93.32
2023-04-06T05:00:11.106Z,93.11
2023-04-06T05:01:11.097Z,92.90
2023-04-06T05:02:11.136Z,92.90
2023-04-06T05:03:11.127Z,93.21
2023-04-06T05:04:11.099Z,93.63
2023-04-06T05:05:11.064Z,93.52
2023-04-06T05:06:13.275Z,94.05
2023-04-06T05:07:10.983Z,94.05
2023-04-06T05:08:10.996Z,93.84
2023-04-06T05:09:11.060Z,93.63
2023-04-06T05:10:10.964Z,93.42
2023-04-06T05:11:10.978Z,93.11
2023-04-06T05:12:10.944Z,93.11
2023-04-06T05:13:10.916Z,92.90
2023-04-06T05:14:10.919Z,93.01
2023-04-06T05:15:10.899Z,93.32
2023-04-06T05:16:10.933Z,93.32
2023-04-06T05:17:10.876Z,93.32
2023-04-06T05:18:10.922Z,93.63
2023-04-06T05:19:10.866Z,93.74
2023-04-06T05:20:10.888Z,93.95
2023-04-06T05:21:10.878Z,94.05
2023-04-06T05:22:10.850Z,94.46
2023-04-06T05:23:10.825Z,94.53
2023-04-06T05:24:10.896Z,94.64
2023-04-06T05:25:10.856Z,94.53
2023-04-06T05:26:10.957Z,94.53
2023-04-06T05:27:10.776Z,94.11
2023-04-06T05:28:10.788Z,93.90
2023-04-06T05:29:11.102Z,93.76
2023-04-06T05:30:10.768Z,93.54
2023-04-06T05:31:10.813Z,93.33
2023-04-06T05:32:10.778Z,93.13
2023-04-06T05:33:10.729Z,93.33
2023-04-06T05:34:10.817Z,93.02
2023-04-06T05:35:10.698Z,92.71
2023-04-06T05:36:11.977Z,92.40
2023-04-06T05:37:10.664Z,92.50
2023-04-06T05:38:10.721Z,92.35
2023-04-06T05:39:10.945Z,92.35
2023-04-06T05:40:10.696Z,91.89
2023-04-06T05:41:10.671Z,91.37
2023-04-06T05:42:10.654Z,90.95
2023-04-06T05:43:10.598Z,90.64
2023-04-06T05:44:10.828Z,90.43
2023-04-06T05:45:10.597Z,89.91
2023-04-06T05:46:10.858Z,89.70
2023-04-06T05:47:10.569Z,89.56
2023-04-06T05:48:10.693Z,89.24
2023-04-06T05:49:10.912Z,89.14
2023-04-06T05:50:10.668Z,89.03
2023-04-06T05:51:10.630Z,88.72
2023-04-06T05:52:10.506Z,88.41
2023-04-06T05:53:10.495Z,87.84
2023-04-06T05:54:10.511Z,87.32
2023-04-06T05:55:10.755Z,87.01
2023-04-06T05:56:10.474Z,86.38
2023-04-06T05:57:10.448Z,86.18
2023-04-06T05:58:10.443Z,86.07
2023-04-06T05:59:10.683Z,85.93
2023-04-06T06:00:10.474Z,85.82
2023-04-06T06:01:10.409Z,85.61
2023-04-06T06:02:10.513Z,85.51
2023-04-06T06:03:10.397Z,85.41
2023-04-06T06:04:10.407Z,85.10
2023-04-06T06:05:10.376Z,84.99
2023-04-06T06:06:10.517Z,84.78
2023-04-06T06:07:10.357Z,84.22
2023-04-06T06:08:10.392Z,83.91
2023-04-06T06:09:10.489Z,83.91
2023-04-06T06:10:10.461Z,83.66
2023-04-06T06:11:10.290Z,83.56
2023-04-06T06:12:12.027Z,83.35
2023-04-06T06:13:11.307Z,82.93
2023-04-06T06:14:10.299Z,82.93
2023-04-06T06:15:10.251Z,82.41
2023-04-06T06:16:10.353Z,81.75
2023-04-06T06:17:10.240Z,81.33
2023-04-06T06:18:10.387Z,81.23
2023-04-06T06:19:10.262Z,80.36
2023-04-06T06:20:10.357Z,79.28
2023-04-06T06:21:10.198Z,78.45
2023-04-06T06:22:10.200Z,77.89
2023-04-06T06:23:10.228Z,78.00
2023-04-06T06:24:10.411Z,77.03
2023-04-06T06:25:10.143Z,76.82
2023-04-06T06:26:10.385Z,76.19
2023-04-06T06:27:10.114Z,75.98
2023-04-06T06:28:10.202Z,75.43
2023-04-06T06:29:10.319Z,74.60
2023-04-06T06:30:10.152Z,74.77
2023-04-06T06:31:10.152Z,74.46
2023-04-06T06:32:10.189Z,73.91
2023-04-06T06:33:10.073Z,74.53
2023-04-06T06:34:10.456Z,73.60
2023-04-06T06:35:10.048Z,73.05
2023-04-06T06:36:10.103Z,72.84
2023-04-06T06:37:10.020Z,72.94
2023-04-06T06:38:10.092Z,71.45
2023-04-06T06:39:10.209Z,71.87
2023-04-06T06:40:10.049Z,71.22
2023-04-06T06:41:09.984Z,70.90
2023-04-06T06:42:10.006Z,70.56
2023-04-06T06:43:09.965Z,70.87
2023-04-06T06:44:10.220Z,69.90
2023-04-06T06:45:09.962Z,69.29
2023-04-06T06:46:10.029Z,68.98
2023-04-06T06:47:09.954Z,68.01
2023-04-06T06:48:10.033Z,68.12
2023-04-06T06:49:09.917Z,68.43
2023-04-06T06:50:09.961Z,67.98
2023-04-06T06:51:09.915Z,67.25
2023-04-06T06:52:09.990Z,66.50
2023-04-06T06:53:09.864Z,65.67
2023-04-06T06:54:10.084Z,65.47
2023-04-06T06:55:09.911Z,65.16
2023-04-06T06:56:09.905Z,65.16
2023-04-06T06:57:09.802Z,65.16
2023-04-06T06:58:09.854Z,64.92
2023-04-06T06:59:10.027Z,65.02
2023-04-06T07:00:12.281Z,65.41
2023-04-06T07:01:09.796Z,64.96
2023-04-06T07:02:09.814Z,64.96
2023-04-06T07:03:09.760Z,65.06
2023-04-06T07:04:10.264Z,64.21
2023-04-06T07:05:23.632Z,64.62
2023-04-06T07:06:10.734Z,64.11
2023-04-06T07:07:09.710Z,63.87
2023-04-06T07:08:09.740Z,64.04
2023-04-06T07:09:09.762Z,63.64
2023-04-06T07:10:09.799Z,62.37
2023-04-06T07:11:09.697Z,61.13
2023-04-06T07:12:09.712Z,60.89
2023-04-06T07:13:09.665Z,61.72
2023-04-06T07:14:09.765Z,61.52
2023-04-06T07:15:09.638Z,61.41
2023-04-06T07:16:09.818Z,60.89
2023-04-06T07:17:09.948Z,61.18
2023-04-06T07:18:09.696Z,61.69
2023-04-06T07:19:09.593Z,59.74
2023-04-06T07:20:09.614Z,60.05
2023-04-06T07:21:09.569Z,60.02
2023-04-06T07:22:09.566Z,60.53
2023-04-06T07:23:09.545Z,60.09
2023-04-06T07:24:09.749Z,59.89
2023-04-06T07:25:09.541Z,59.68
2023-04-06T07:26:09.555Z,59.47
2023-04-06T07:27:09.531Z,59.14
2023-04-06T07:28:09.554Z,59.14
2023-04-06T07:29:09.493Z,58.80
2023-04-06T07:30:09.536Z,58.50
2023-04-06T07:31:09.437Z,59.11
2023-04-06T07:32:09.526Z,58.08
2023-04-06T07:33:09.421Z,58.06
2023-04-06T07:34:09.705Z,57.95
2023-04-06T07:35:09.691Z,57.54
2023-04-06T07:36:09.650Z,57.10
2023-04-06T07:37:09.436Z,56.90
2023-04-06T07:38:09.376Z,55.98
2023-04-06T07:39:09.342Z,56.67
2023-04-06T07:40:09.411Z,56.28
2023-04-06T07:41:09.851Z,56.36
2023-04-06T07:42:09.553Z,56.46
2023-04-06T07:43:09.443Z,56.36
2023-04-06T07:44:09.512Z,56.77
2023-04-06T07:45:09.288Z,56.43
2023-04-06T07:46:09.375Z,56.77
2023-04-06T07:47:09.327Z,56.95
2023-04-06T07:48:09.382Z,57.46
2023-04-06T07:49:09.273Z,57.33
2023-04-06T07:50:09.414Z,55.90
2023-04-06T07:51:09.306Z,56.07
2023-04-06T07:52:09.217Z,55.36
2023-04-06T07:53:09.324Z,55.77
2023-04-06T07:54:09.341Z,54.97
2023-04-06T07:55:09.188Z,56.20
2023-04-06T07:56:09.258Z,56.82
2023-04-06T07:57:09.245Z,56.20
2023-04-06T07:58:09.186Z,56.43
2023-04-06T07:59:09.214Z,56.34
2023-04-06T08:00:09.179Z,57.15
2023-04-06T08:01:09.302Z,57.67
2023-04-06T08:02:09.161Z,56.85
2023-04-06T08:03:09.156Z,56.77
2023-04-06T08:04:09.396Z,57.28
2023-04-06T08:05:09.079Z,57.49
2023-04-06T08:06:09.155Z,56.77
2023-04-06T08:07:09.075Z,56.90
2023-04-06T08:08:09.250Z,58.31
2023-04-06T08:09:09.102Z,58.00
2023-04-06T08:10:09.144Z,58.11
2023-04-06T08:11:09.042Z,58.18
2023-04-06T08:12:09.090Z,57.26
2023-04-06T08:13:08.985Z,58.07
2023-04-06T08:14:09.314Z,58.05
2023-04-06T08:15:08.956Z,57.03
2023-04-06T08:16:09.213Z,57.31
2023-04-06T08:17:08.943Z,57.00
2023-04-06T08:18:09.028Z,57.61
2023-04-06T08:19:08.927Z,57.18
2023-04-06T08:20:09.003Z,56.77
2023-04-06T08:21:08.931Z,56.43
2023-04-06T08:22:08.896Z,56.54
2023-04-06T08:23:08.882Z,57.87
2023-04-06T08:24:09.124Z,55.62
2023-04-06T08:25:08.860Z,56.13
2023-04-06T08:26:08.914Z,55.72
2023-04-06T08:27:08.868Z,55.38
2023-04-06T08:28:09.131Z,55.38
2023-04-06T08:29:08.850Z,54.36
2023-04-06T08:30:08.948Z,54.36
2023-04-06T08:31:08.931Z,54.49
2023-04-06T08:32:08.796Z,54.00
2023-04-06T08:33:08.827Z,55.54
2023-04-06T08:34:10.905Z,56.64
2023-04-06T08:35:08.748Z,55.41
2023-04-06T08:36:08.928Z,55.82
2023-04-06T08:37:08.730Z,55.28
2023-04-06T08:38:08.795Z,54.46
2023-04-06T08:39:08.792Z,54.46
2023-04-06T08:40:08.803Z,54.46
2023-04-06T08:41:08.692Z,53.64
2023-04-06T08:42:08.694Z,54.57
2023-04-06T08:43:08.662Z,55.77
2023-04-06T08:44:08.868Z,54.54
2023-04-06T08:45:08.646Z,53.72
2023-04-06T08:46:09.374Z,54.82
2023-04-06T08:47:08.614Z,54.00
2023-04-06T08:48:08.693Z,53.31
2023-04-06T08:49:08.668Z,54.13
2023-04-06T08:50:08.703Z,54.61
2023-04-06T08:51:08.606Z,54.69
2023-04-06T08:52:08.714Z,53.98
2023-04-06T08:53:08.553Z,54.16
2023-04-06T08:54:08.763Z,52.93
2023-04-06T08:55:08.533Z,53.23
2023-04-06T08:56:08.562Z,53.92
2023-04-06T08:57:08.504Z,52.70
2023-04-06T08:58:08.501Z,54.11
2023-04-06T08:59:08.518Z,52.25
2023-04-06T09:00:08.527Z,52.14
2023-04-06T09:01:08.484Z,52.25
2023-04-06T09:02:08.607Z,50.59
2023-04-06T09:03:08.615Z,52.22
2023-04-06T09:04:09.503Z,52.32
2023-04-06T09:05:08.424Z,52.40
2023-04-06T09:06:08.488Z,50.79
2023-04-06T09:07:08.420Z,51.91
2023-04-06T09:08:08.841Z,52.32
2023-04-06T09:09:08.389Z,53.42
2023-04-06T09:10:08.448Z,52.70
2023-04-06T09:11:08.409Z,52.68
2023-04-06T09:12:08.442Z,51.97
2023-04-06T09:13:08.395Z,51.35
2023-04-06T09:14:08.582Z,52.07
2023-04-06T09:15:08.309Z,51.76
2023-04-06T09:16:08.453Z,51.56
2023-04-06T09:17:08.373Z,51.66
2023-04-06T09:18:08.404Z,50.15
2023-04-06T09:19:08.275Z,50.87
2023-04-06T09:20:08.393Z,50.79
2023-04-06T09:21:08.362Z,51.71
2023-04-06T09:22:08.690Z,50.99
2023-04-06T09:23:08.240Z,51.71
2023-04-06T09:24:08.600Z,52.42
2023-04-06T09:25:08.206Z,50.59
2023-04-06T09:26:08.571Z,51.10
2023-04-06T09:27:08.213Z,50.18
2023-04-06T09:28:08.279Z,52.09
2023-04-06T09:29:08.200Z,51.07
2023-04-06T09:30:08.248Z,50.46
2023-04-06T09:31:08.252Z,51.86
2023-04-06T09:32:08.235Z,51.46
2023-04-06T09:33:08.213Z,51.74
2023-04-06T09:34:08.440Z,51.03
2023-04-06T09:35:08.114Z,49.78
2023-04-06T09:36:08.153Z,50.09
2023-04-06T09:37:08.084Z,48.66
2023-04-06T09:38:08.100Z,49.37
2023-04-06T09:39:08.059Z,49.98
2023-04-06T09:40:08.106Z,50.90
2023-04-06T09:41:08.071Z,49.68
2023-04-06T09:42:08.146Z,50.19
2023-04-06T09:43:08.068Z,49.76
2023-04-06T09:44:08.364Z,50.57
2023-04-06T09:45:08.022Z,50.24
2023-04-06T09:46:08.060Z,49.65
2023-04-06T09:47:08.063Z,48.64
2023-04-06T09:48:08.029Z,50.06
2023-04-06T09:49:08.250Z,48.43
2023-04-06T09:50:08.181Z,49.45
2023-04-06T09:51:08.053Z,48.13
2023-04-06T09:52:08.048Z,49.55
2023-04-06T09:53:07.944Z,50.16
2023-04-06T09:54:08.107Z,49.15
2023-04-06T09:55:07.913Z,49.17
2023-04-06T09:56:08.009Z,50.37
2023-04-06T09:57:07.865Z,51.97
2023-04-06T09:58:08.302Z,51.16
2023-04-06T09:59:08.256Z,50.14
2023-04-06T10:00:07.985Z,50.14
2023-04-06T10:01:07.902Z,49.63
2023-04-06T10:02:07.894Z,50.65
2023-04-06T10:03:09.657Z,51.23
2023-04-06T10:04:08.422Z,50.93
2023-04-06T10:05:07.785Z,51.01
2023-04-06T10:06:07.805Z,48.47
2023-04-06T10:07:07.765Z,48.95
2023-04-06T10:08:07.888Z,48.93
2023-04-06T10:09:07.747Z,49.44
2023-04-06T10:10:07.758Z,48.91
2023-04-06T10:11:07.743Z,47.69
2023-04-06T10:12:07.953Z,45.46
2023-04-06T10:13:07.769Z,45.66
2023-04-06T10:14:08.137Z,45.48
2023-04-06T10:15:07.703Z,45.89
2023-04-06T10:16:07.797Z,47.30
2023-04-06T10:17:07.691Z,47.61
2023-04-06T10:18:07.808Z,47.18
2023-04-06T10:19:07.637Z,47.08
2023-04-06T10:20:07.717Z,45.05
2023-04-06T10:21:07.619Z,43.65
2023-04-06T10:22:07.607Z,44.85
2023-04-06T10:23:07.580Z,46.47
2023-04-06T10:24:07.902Z,46.78
2023-04-06T10:25:07.569Z,45.36
2023-04-06T10:26:07.966Z,44.97
2023-04-06T10:27:07.533Z,45.17
2023-04-06T10:28:07.772Z,46.49
2023-04-06T10:29:07.546Z,47.30
2023-04-06T10:30:07.677Z,48.42
2023-04-06T10:31:07.610Z,47.91
2023-04-06T10:32:07.578Z,48.22
2023-04-06T10:33:07.584Z,48.32
2023-04-06T10:34:07.883Z,46.90
2023-04-06T10:35:07.463Z,45.58
2023-04-06T10:36:07.498Z,46.90
2023-04-06T10:37:07.439Z,46.59
2023-04-06T10:38:07.462Z,45.29
2023-04-06T10:39:07.595Z,45.52
2023-04-06T10:40:07.950Z,46.84
2023-04-06T10:41:07.497Z,47.45
2023-04-06T10:42:07.418Z,47.83
2023-04-06T10:43:07.631Z,46.13
2023-04-06T10:44:07.773Z,45.54
2023-04-06T10:45:07.396Z,49.28
2023-04-06T10:46:07.423Z,48.24
2023-04-06T10:47:07.329Z,47.13
2023-04-06T10:48:07.379Z,47.53
2023-04-06T10:49:07.334Z,46.41
2023-04-06T10:50:07.392Z,46.92
2023-04-06T10:51:07.320Z,48.83
2023-04-06T10:52:07.441Z,49.84
2023-04-06T10:53:07.289Z,46.80
2023-04-06T10:54:07.394Z,48.32
2023-04-06T10:55:07.252Z,45.89
2023-04-06T10:56:07.408Z,46.80
2023-04-06T10:57:07.354Z,46.62
2023-04-06T10:58:07.697Z,46.62
2023-04-06T10:59:07.277Z,46.21
2023-04-06T11:00:07.326Z,46.23
2023-04-06T11:01:07.205Z,44.51
2023-04-06T11:02:07.281Z,44.51
2023-04-06T11:03:07.295Z,44.51
2023-04-06T11:04:07.301Z,45.52
2023-04-06T11:05:07.275Z,46.92
2023-04-06T11:06:07.283Z,46.11
2023-04-06T11:07:07.142Z,46.21
2023-04-06T11:08:07.176Z,46.51
2023-04-06T11:09:07.105Z,45.09
2023-04-06T11:10:16.573Z,44.71
2023-04-06T11:11:08.098Z,47.22
2023-04-06T11:12:07.158Z,46.82
2023-04-06T11:13:07.082Z,47.41
2023-04-06T11:14:07.242Z,47.41
2023-04-06T11:15:07.067Z,46.19
2023-04-06T11:16:07.052Z,45.60
2023-04-06T11:17:07.157Z,45.01
2023-04-06T11:18:07.079Z,47.86
2023-04-06T11:19:07.077Z,48.16
2023-04-06T11:20:07.197Z,46.64
2023-04-06T11:21:06.971Z,46.84
2023-04-06T11:22:07.020Z,46.23
2023-04-06T11:23:06.962Z,45.83
2023-04-06T11:24:06.984Z,46.94
2023-04-06T11:25:06.948Z,46.64
2023-04-06T11:26:06.928Z,46.74
2023-04-06T11:27:06.895Z,46.23
2023-04-06T11:28:06.901Z,44.51
2023-04-06T11:29:06.908Z,45.93
2023-04-06T11:30:07.048Z,46.33
2023-04-06T11:31:06.885Z,47.94
2023-04-06T11:32:06.926Z,46.31
2023-04-06T11:33:07.013Z,46.64
2023-04-06T11:34:07.091Z,46.72
2023-04-06T11:35:06.846Z,45.40
2023-04-06T11:36:06.984Z,46.51
2023-04-06T11:37:06.808Z,47.75
2023-04-06T11:38:06.866Z,47.33
2023-04-06T11:39:06.772Z,48.44
2023-04-06T11:40:07.301Z,46.82
2023-04-06T11:41:06.761Z,47.13
2023-04-06T11:42:09.030Z,46.13
2023-04-06T11:43:06.732Z,46.53
2023-04-06T11:44:06.775Z,46.13
2023-04-06T11:45:07.008Z,46.15
2023-04-06T11:46:06.787Z,47.06
2023-04-06T11:47:06.715Z,48.67
2023-04-06T11:48:06.785Z,49.36
2023-04-06T11:49:06.710Z,49.16
2023-04-06T11:50:07.295Z,48.11
2023-04-06T11:51:06.676Z,48.52
2023-04-06T11:52:06.665Z,47.83
2023-04-06T11:53:06.638Z,46.51
2023-04-06T11:54:06.664Z,46.51
2023-04-06T11:55:06.695Z,46.31
2023-04-06T11:56:06.865Z,46.62
2023-04-06T11:57:06.644Z,46.23
2023-04-06T11:58:06.665Z,47.55
2023-04-06T11:59:06.618Z,47.35
2023-04-06T12:00:06.719Z,47.55
2023-04-06T12:01:06.524Z,48.67
2023-04-06T12:02:06.534Z,50.17
2023-04-06T12:03:06.713Z,50.58
2023-04-06T12:04:06.804Z,50.15
2023-04-06T12:05:06.500Z,48.32
2023-04-06T12:06:06.588Z,50.04
2023-04-06T12:07:06.480Z,49.44
2023-04-06T12:08:06.529Z,47.20
2023-04-06T12:09:06.512Z,48.22
2023-04-06T12:10:06.653Z,49.95
2023-04-06T12:11:06.448Z,50.35
2023-04-06T12:12:06.606Z,48.83
2023-04-06T12:13:06.532Z,48.22
2023-04-06T12:14:06.499Z,47.51
2023-04-06T12:15:06.395Z,47.91
2023-04-06T12:16:06.546Z,47.51
2023-04-06T12:17:06.365Z,49.62
2023-04-06T12:18:06.484Z,48.80
2023-04-06T12:19:06.507Z,47.59
2023-04-06T12:20:18.040Z,46.41
2023-04-06T12:21:07.338Z,47.33
2023-04-06T12:22:06.379Z,46.82
2023-04-06T12:23:06.622Z,47.61
2023-04-06T12:24:06.369Z,47.22
2023-04-06T12:25:06.271Z,47.43
2023-04-06T12:26:06.331Z,48.44
2023-04-06T12:27:10.475Z,46.62
2023-04-06T12:28:06.287Z,46.31
2023-04-06T12:29:06.232Z,47.43
2023-04-06T12:30:06.405Z,47.22
2023-04-06T12:31:06.219Z,46.72
2023-04-06T12:32:06.399Z,46.62
2023-04-06T12:33:06.239Z,47.13
2023-04-06T12:34:06.233Z,49.26
2023-04-06T12:35:06.175Z,48.32
2023-04-06T12:36:06.198Z,47.13
2023-04-06T12:37:06.124Z,46.72
2023-04-06T12:38:06.201Z,45.40
2023-04-06T12:39:06.168Z,46.49
2023-04-06T12:40:06.175Z,45.40
2023-04-06T12:41:06.182Z,47.00
2023-04-06T12:42:06.123Z,47.00
2023-04-06T12:43:06.084Z,48.30
2023-04-06T12:44:06.157Z,47.89
2023-04-06T12:45:06.099Z,46.17
2023-04-06T12:46:06.035Z,47.59
2023-04-06T12:47:06.080Z,46.78
2023-04-06T12:48:06.051Z,46.37
2023-04-06T12:49:06.013Z,46.37
2023-04-06T12:50:06.115Z,46.78
2023-04-06T12:51:06.064Z,45.98
2023-04-06T12:52:05.985Z,47.30